Sainte-Anne-De-Beaupre, Canada
Current Conditions -  °F | °C
As of 5:00 PM on Monday 20 Oct 2014 (Local Time) from CYQB Reporting Station
Broken Clouds Broken Clouds  
Wind Chill: 34°   Ceiling: 23000
Heat Index: 41°   Visibility: 25mi
Dew Point: 28°   Wind: 12mph
Humidity: 61%   Direction: 240°WSW
Pressure: 29.9"   Gusts: NA
Location:  47.02°N, 70.93°W
Report Text: CYQB 202100Z 24010KT 25SM FEW045 SCT100 BKN230 05/M02 A2990 RMK SC1AC2CC2 SLP127
Loading
Personal Weather Stations






























Interactive Weather Map New forecast layout! Learn more

10-Day Weather Forecast

Advertisements
Track Severe Weather on mobile